Time;durP1;ratioP1;P1;durP2;ratioP2;P2;SDS_P1;SDS_P2;PMS_P1;PMS_P2;Temp;Humidity;BMP_temperature;BMP_pressure;BME280_temperature;BME280_humidity;BME280_pressure;Samples;Min_cycle;Max_cycle;Signal;HPM_P1;HPM_P2
2022/05/13 00:00:06;;;;;;;0.03;0.03;;;19.80;90.30;;;;;;4985835;28;20031;-75
2022/05/13 00:02:32;;;;;;;0.00;0.00;;;19.80;90.30;;;;;;4986286;28;20089;-75
2022/05/13 00:04:58;;;;;;;1.08;0.75;;;19.80;90.20;;;;;;4988468;28;20471;-74
2022/05/13 00:07:23;;;;;;;0.00;0.00;;;19.90;90.10;;;;;;4974984;28;20081;-74
2022/05/13 00:10:00;;;;;;;0.38;0.25;;;19.90;90.00;;;;;;4989375;28;20051;-73
2022/05/13 00:12:34;;;;;;;0.52;0.32;;;19.80;90.10;;;;;;4974868;28;20043;-75
2022/05/13 00:15:01;;;;;;;0.00;0.00;;;19.80;90.00;;;;;;4975093;28;20034;-75
2022/05/13 00:17:28;;;;;;;0.00;0.00;;;19.70;90.00;;;;;;4989685;28;20059;-74
2022/05/13 00:19:55;;;;;;;0.00;0.00;;;19.70;90.10;;;;;;4989068;28;20023;-73
2022/05/13 00:22:21;;;;;;;0.00;0.00;;;19.60;90.20;;;;;;4974711;28;20022;-73
2022/05/13 00:24:47;;;;;;;0.00;0.00;;;19.70;90.30;;;;;;4989264;28;20477;-74
2022/05/13 00:27:13;;;;;;;0.00;0.00;;;19.70;90.20;;;;;;4974528;28;20498;-75
2022/05/13 00:29:40;;;;;;;0.08;0.08;;;19.60;90.30;;;;;;4974321;28;20122;-73
2022/05/13 00:32:07;;;;;;;0.00;0.00;;;19.60;90.40;;;;;;4989736;28;20035;-74
2022/05/13 00:34:33;;;;;;;0.00;0.00;;;19.60;90.40;;;;;;4973203;28;20065;-74
2022/05/13 00:36:59;;;;;;;0.00;0.00;;;19.70;90.40;;;;;;4974354;28;20031;-73
2022/05/13 00:39:26;;;;;;;0.00;0.00;;;19.70;90.60;;;;;;4988779;28;20039;-75
2022/05/13 00:41:53;;;;;;;0.32;0.30;;;19.70;90.60;;;;;;4988993;28;20391;-74
2022/05/13 00:44:21;;;;;;;0.00;0.00;;;19.70;90.60;;;;;;4989086;28;20038;-72
2022/05/13 00:46:48;;;;;;;0.00;0.00;;;19.60;90.80;;;;;;4972930;28;20037;-74
2022/05/13 00:49:16;;;;;;;0.10;0.10;;;19.50;91.20;;;;;;4974105;28;20082;-75
2022/05/13 00:51:47;;;;;;;1.55;1.17;;;19.50;91.20;;;;;;4973976;28;20554;-74
2022/05/13 00:54:15;;;;;;;;;;;19.50;91.10;;;;;;4989177;28;20038;-74
2022/05/13 00:56:47;;;;;;;0.80;0.47;;;19.50;90.90;;;;;;4988889;28;20448;-74
2022/05/13 00:59:22;;;;;;;13.05;0.80;;;19.50;91.10;;;;;;4973861;28;20109;-74
2022/05/13 01:01:48;;;;;;;0.00;0.00;;;19.60;91.00;;;;;;4973689;28;20037;-75
2022/05/13 01:04:17;;;;;;;0.00;0.00;;;19.50;91.10;;;;;;4974156;28;20031;-75
2022/05/13 01:06:52;;;;;;;0.10;0.10;;;19.50;91.20;;;;;;4984887;28;20109;-74
2022/05/13 01:09:20;;;;;;;0.77;0.65;;;19.50;91.10;;;;;;5005876;28;20030;-74
2022/05/13 01:11:52;;;;;;;0.00;0.00;;;19.40;90.80;;;;;;4992852;28;20045;-74
2022/05/13 01:14:34;;;;;;;0.45;0.20;;;19.40;90.90;;;;;;4976519;28;20280;-75
2022/05/13 01:20:19;;;;;;;0.00;0.00;;;19.30;91.10;;;;;;4992607;28;20402;-74
2022/05/13 01:22:53;;;;;;;0.00;0.00;;;19.30;91.20;;;;;;4975674;28;20034;-74
2022/05/13 01:25:24;;;;;;;0.00;0.00;;;19.30;91.40;;;;;;4991344;28;20819;-74
2022/05/13 01:27:52;;;;;;;0.10;0.10;;;19.20;91.60;;;;;;4992996;28;20069;-74
2022/05/13 01:30:27;;;;;;;0.10;0.10;;;19.10;91.70;;;;;;4992412;28;20398;-74
2022/05/13 01:32:53;;;;;;;0.30;0.30;;;18.90;91.90;;;;;;4991596;28;20486;-74
2022/05/13 01:35:20;;;;;;;0.00;0.00;;;18.90;92.30;;;;;;4991750;28;20026;-74
2022/05/13 01:37:46;;;;;;;0.15;0.15;;;18.80;92.30;;;;;;4991151;28;20069;-72
2022/05/13 01:40:13;;;;;;;1.05;1.00;;;18.70;92.60;;;;;;4992266;28;20045;-74
2022/05/13 01:42:39;;;;;;;0.00;0.00;;;18.70;92.70;;;;;;4973423;28;20026;-72
2022/05/13 01:45:09;;;;;;;0.30;0.30;;;18.60;92.80;;;;;;4973026;28;20023;-73
2022/05/13 01:47:35;;;;;;;0.17;0.17;;;18.60;92.80;;;;;;4972953;28;20186;-73
2022/05/13 01:50:02;;;;;;;0.08;0.05;;;18.50;92.90;;;;;;4987745;28;20050;-73
2022/05/13 01:52:28;;;;;;;0.80;0.38;;;18.60;92.80;;;;;;4987512;28;20498;-73
2022/05/13 01:54:53;;;;;;;0.05;0.00;;;18.60;92.80;;;;;;4972923;28;20037;-73
2022/05/13 01:57:19;;;;;;;0.28;0.28;;;18.50;93.00;;;;;;4987778;28;20672;-73
2022/05/13 01:59:45;;;;;;;1.52;0.47;;;18.60;93.00;;;;;;4971228;28;20035;-73
2022/05/13 02:02:11;;;;;;;0.00;0.00;;;18.50;93.30;;;;;;4972832;28;20487;-73
2022/05/13 02:04:37;;;;;;;0.32;0.32;;;18.40;93.50;;;;;;4973014;28;20030;-73
2022/05/13 02:07:03;;;;;;;1.85;1.45;;;18.30;93.50;;;;;;4972449;28;20030;-73
2022/05/13 02:09:29;;;;;;;0.25;0.10;;;18.30;93.70;;;;;;4971885;28;20387;-73
2022/05/13 02:11:55;;;;;;;0.20;0.20;;;18.20;93.90;;;;;;4987650;28;20031;-73
2022/05/13 02:14:21;;;;;;;0.10;0.10;;;18.20;93.90;;;;;;4987361;28;20027;-73
2022/05/13 02:16:47;;;;;;;0.00;0.00;;;18.20;94.00;;;;;;4991726;28;20034;-73
2022/05/13 02:19:13;;;;;;;0.13;0.13;;;18.10;94.10;;;;;;4991523;28;20602;-73
2022/05/13 02:21:39;;;;;;;0.00;0.00;;;18.10;94.30;;;;;;4990519;28;20030;-73
2022/05/13 02:24:06;;;;;;;0.05;0.05;;;18.00;94.40;;;;;;4990479;28;20023;-73
2022/05/13 02:26:32;;;;;;;0.00;0.00;;;18.10;94.50;;;;;;4990213;28;20569;-73
2022/05/13 02:29:01;;;;;;;0.10;0.10;;;18.10;94.50;;;;;;4991407;28;20073;-72
2022/05/13 02:31:30;;;;;;;0.00;0.00;;;18.00;94.70;;;;;;4991560;28;20073;-73
2022/05/13 02:33:59;;;;;;;0.00;0.00;;;17.90;94.90;;;;;;4990144;28;20038;-73
2022/05/13 02:36:26;;;;;;;0.00;0.00;;;17.90;94.70;;;;;;4991414;28;20430;-73
2022/05/13 02:38:52;;;;;;;0.75;0.63;;;17.90;94.80;;;;;;4973493;28;20152;-73
2022/05/13 02:41:19;;;;;;;0.13;0.10;;;17.90;94.80;;;;;;4991567;28;20030;-73
2022/05/13 02:43:52;;;;;;;0.52;0.52;;;17.90;94.90;;;;;;4991563;28;20185;-73
2022/05/13 02:46:28;;;;;;;0.00;0.00;;;17.90;95.10;;;;;;4991528;28;20026;-73
2022/05/13 02:48:55;;;;;;;9.02;1.55;;;17.90;95.20;;;;;;4991288;28;20034;-73
2022/05/13 02:51:22;;;;;;;0.00;0.00;;;17.90;95.20;;;;;;4991417;28;20034;-74
2022/05/13 02:53:49;;;;;;;0.60;0.28;;;18.00;94.90;;;;;;4973628;28;20026;-73
2022/05/13 02:56:14;;;;;;;0.00;0.00;;;18.00;94.60;;;;;;4989898;28;20418;-73
2022/05/13 02:58:41;;;;;;;0.03;0.03;;;17.80;94.80;;;;;;4990781;28;20084;-73
2022/05/13 03:01:09;;;;;;;0.00;0.00;;;17.90;94.80;;;;;;4989782;28;20113;-74
2022/05/13 03:03:39;;;;;;;0.00;0.00;;;17.90;94.70;;;;;;4991135;28;20022;-74
2022/05/13 03:06:05;;;;;;;0.00;0.00;;;17.80;95.00;;;;;;4990173;28;20028;-75
2022/05/13 03:08:30;;;;;;;0.28;0.28;;;17.80;95.20;;;;;;5006227;28;20505;-75
2022/05/13 03:10:56;;;;;;;0.75;0.20;;;17.70;95.20;;;;;;4990967;28;20109;-73
2022/05/13 03:13:22;;;;;;;0.00;0.00;;;17.70;95.30;;;;;;4989722;28;20371;-73
2022/05/13 03:15:48;;;;;;;0.00;0.00;;;17.60;95.40;;;;;;4990845;28;20058;-73
2022/05/13 03:18:14;;;;;;;0.00;0.00;;;17.60;95.70;;;;;;4989455;28;20040;-69
2022/05/13 03:20:41;;;;;;;0.43;0.43;;;17.50;95.60;;;;;;4990691;28;20402;-69
2022/05/13 03:23:07;;;;;;;0.00;0.00;;;17.50;95.60;;;;;;4989578;28;20065;-69
2022/05/13 03:25:32;;;;;;;0.00;0.00;;;17.60;95.60;;;;;;4991057;28;20054;-69
2022/05/13 03:27:58;;;;;;;0.30;0.22;;;17.60;95.50;;;;;;4989807;28;20038;-69
2022/05/13 03:30:26;;;;;;;0.25;0.25;;;17.60;95.40;;;;;;4989634;28;20044;-69
2022/05/13 03:32:53;;;;;;;0.00;0.00;;;17.50;95.40;;;;;;4991094;28;20514;-70
2022/05/13 03:35:21;;;;;;;0.10;0.10;;;17.50;95.70;;;;;;4991004;28;20467;-69
2022/05/13 03:37:47;;;;;;;6.60;2.05;;;17.60;95.50;;;;;;4990543;28;20058;-69
2022/05/13 03:40:16;;;;;;;0.00;0.00;;;17.60;95.50;;;;;;4993002;28;20443;-69
2022/05/13 03:42:42;;;;;;;0.10;0.10;;;17.60;95.90;;;;;;4994610;28;20037;-69
2022/05/13 03:45:10;;;;;;;0.15;0.15;;;17.60;95.60;;;;;;4977032;28;20022;-68
2022/05/13 03:47:35;;;;;;;0.00;0.00;;;17.60;95.60;;;;;;4994614;28;20519;-68
2022/05/13 03:50:03;;;;;;;0.00;0.00;;;17.50;95.50;;;;;;4993004;28;20212;-68
2022/05/13 03:52:29;;;;;;;0.70;0.55;;;17.40;95.60;;;;;;4993299;28;20061;-68
2022/05/13 03:54:54;;;;;;;0.20;0.20;;;17.40;95.80;;;;;;4994560;28;20061;-68
2022/05/13 03:57:20;;;;;;;0.65;0.45;;;17.30;96.20;;;;;;4994538;28;20134;-68
2022/05/13 03:59:46;;;;;;;0.68;0.52;;;17.30;96.50;;;;;;4994236;28;20030;-69
2022/05/13 04:02:12;;;;;;;0.20;0.20;;;17.20;96.70;;;;;;4994247;28;20387;-68
2022/05/13 04:10:08;;;;;;;0.00;0.00;;;17.10;97.10;;;;;;4992679;28;20067;-71
2022/05/13 04:18:04;;;;;;;1.60;1.10;;;17.00;97.50;;;;;;4993912;28;20051;-69
2022/05/13 04:20:30;;;;;;;0.00;0.00;;;16.90;97.70;;;;;;4991544;28;20033;-69
2022/05/13 04:22:56;;;;;;;0.08;0.08;;;17.00;97.40;;;;;;4993810;28;20033;-69
2022/05/13 04:25:23;;;;;;;0.00;0.00;;;17.00;97.30;;;;;;4993519;28;20422;-69
2022/05/13 04:27:48;;;;;;;0.00;0.00;;;17.00;96.90;;;;;;4990652;28;20125;-68
2022/05/13 04:30:14;;;;;;;0.98;0.73;;;16.90;96.80;;;;;;4992296;28;20176;-69
2022/05/13 04:32:40;;;;;;;0.75;0.30;;;16.90;96.90;;;;;;5009845;28;20034;-69
2022/05/13 04:35:07;;;;;;;0.13;0.13;;;16.80;97.10;;;;;;4993347;28;20034;-69
2022/05/13 04:37:33;;;;;;;0.00;0.00;;;16.80;97.30;;;;;;4993303;28;20077;-69
2022/05/13 04:39:59;;;;;;;1.00;0.52;;;16.80;97.50;;;;;;4991658;28;20031;-69
2022/05/13 04:45:10;;;;;;;0.10;0.10;;;16.90;97.50;;;;;;4962653;28;20023;-68
2022/05/13 04:50:21;;;;;;;0.35;0.35;;;16.90;97.60;;;;;;4991614;28;20160;-68
2022/05/13 04:52:47;;;;;;;1.55;0.28;;;16.90;97.70;;;;;;4993008;28;20037;-68
2022/05/13 04:55:14;;;;;;;0.43;0.43;;;16.90;98.00;;;;;;4991592;28;20030;-71
2022/05/13 04:57:40;;;;;;;0.93;0.50;;;16.80;98.20;;;;;;4991722;28;20053;-70
2022/05/13 05:00:07;;;;;;;0.08;0.08;;;16.80;97.90;;;;;;4988126;28;20034;-68
2022/05/13 05:02:34;;;;;;;0.25;0.22;;;16.80;98.00;;;;;;4982267;28;20041;-69
2022/05/13 05:05:00;;;;;;;0.00;0.00;;;16.70;98.30;;;;;;4981303;28;20114;-70
2022/05/13 05:07:26;;;;;;;0.95;0.68;;;16.70;98.20;;;;;;4972296;28;20046;-70
2022/05/13 05:09:52;;;;;;;0.85;0.70;;;16.70;97.90;;;;;;4973153;28;20042;-70
2022/05/13 05:12:17;;;;;;;0.13;0.10;;;16.70;97.60;;;;;;4983886;28;20576;-72
2022/05/13 05:14:44;;;;;;;0.52;0.52;;;16.70;97.40;;;;;;4992853;28;20038;-69
2022/05/13 05:17:10;;;;;;;0.50;0.50;;;16.70;97.60;;;;;;4992784;28;20038;-74
2022/05/13 05:19:36;;;;;;;0.03;0.03;;;16.80;98.00;;;;;;4992611;28;20034;-66
2022/05/13 05:22:05;;;;;;;1.75;0.85;;;16.90;97.50;;;;;;4992177;28;20042;-68
2022/05/13 05:24:30;;;;;;;0.00;0.00;;;16.90;97.70;;;;;;4991142;28;20277;-74
2022/05/13 05:26:56;;;;;;;0.35;0.35;;;16.90;98.60;;;;;;4991208;28;20037;-69
2022/05/13 05:29:22;;;;;;;1.00;0.40;;;16.80;99.20;;;;;;4992318;28;20034;-68
2022/05/13 05:31:48;;;;;;;0.00;0.00;;;16.60;99.90;;;;;;4992190;28;20022;-68
2022/05/13 05:34:17;;;;;;;12.15;1.85;;;16.70;99.90;;;;;;4991986;28;20475;-68
2022/05/13 05:36:44;;;;;;;0.85;0.73;;;16.70;99.90;;;;;;4991016;28;20034;-71
2022/05/13 05:39:10;;;;;;;0.00;0.00;;;16.70;99.90;;;;;;4993068;28;20041;-69
2022/05/13 05:41:36;;;;;;;0.00;0.00;;;16.80;99.80;;;;;;4996947;28;20061;-69
2022/05/13 05:44:03;;;;;;;0.13;0.13;;;16.80;99.90;;;;;;4997928;28;20030;-70
2022/05/13 05:46:29;;;;;;;0.00;0.00;;;16.90;99.90;;;;;;4990869;28;20026;-70
2022/05/13 05:48:54;;;;;;;0.20;0.15;;;16.90;99.80;;;;;;4978531;28;20109;-69
2022/05/13 05:51:20;;;;;;;0.50;0.40;;;17.00;99.90;;;;;;4984773;28;20034;-69
2022/05/13 05:59:15;;;;;;;0.00;0.00;;;17.20;98.90;;;;;;4989955;28;20077;-70
2022/05/13 06:01:41;;;;;;;0.08;0.08;;;17.30;98.90;;;;;;4987442;28;20027;-69
2022/05/13 06:04:07;;;;;;;0.00;0.00;;;17.20;98.50;;;;;;4990033;28;20026;-69
2022/05/13 06:06:33;;;;;;;1.17;0.52;;;17.20;98.50;;;;;;4991806;28;20022;-68
2022/05/13 06:08:59;;;;;;;1.10;0.80;;;17.30;98.20;;;;;;4991209;28;20037;-67
2022/05/13 06:11:26;;;;;;;0.47;0.47;;;17.30;98.10;;;;;;4995622;28;20030;-70
2022/05/13 06:13:53;;;;;;;0.30;0.30;;;17.40;98.10;;;;;;5008203;28;20068;-70
2022/05/13 06:16:22;;;;;;;0.00;0.00;;;17.60;98.00;;;;;;4974479;28;20057;-71
2022/05/13 06:18:48;;;;;;;0.00;0.00;;;17.70;97.50;;;;;;4989843;28;20026;-69
2022/05/13 06:21:14;;;;;;;0.38;0.38;;;17.60;96.80;;;;;;4991368;28;20164;-70
2022/05/13 06:23:40;;;;;;;0.00;0.00;;;17.60;96.80;;;;;;4991870;28;20737;-69
2022/05/13 06:26:06;;;;;;;0.00;0.00;;;17.50;96.60;;;;;;4990326;28;20046;-69
2022/05/13 06:28:32;;;;;;;0.40;0.32;;;17.40;96.90;;;;;;4989683;28;20498;-70
2022/05/13 06:30:58;;;;;;;0.00;0.00;;;17.50;96.40;;;;;;4990712;28;20117;-71
2022/05/13 06:33:28;;;;;;;0.00;0.00;;;17.50;96.10;;;;;;4990132;28;20497;-72
2022/05/13 06:35:53;;;;;;;0.00;0.00;;;17.40;96.30;;;;;;4990209;28;20041;-71
2022/05/13 06:38:22;;;;;;;0.35;0.30;;;17.40;96.30;;;;;;4991190;28;20030;-69
2022/05/13 06:40:53;;;;;;;1.25;0.75;;;17.30;96.40;;;;;;4991586;28;20030;-69
2022/05/13 06:43:20;;;;;;;;;;;17.30;96.20;;;;;;5011423;28;20415;-69
2022/05/13 06:45:47;;;;;;;0.00;0.00;;;17.40;96.10;;;;;;5009429;28;19967;-69
2022/05/13 06:48:13;;;;;;;4.07;2.35;;;17.40;95.90;;;;;;5009398;28;20109;-70
2022/05/13 06:50:43;;;;;;;0.17;0.17;;;17.40;96.00;;;;;;4993132;28;20034;-69
2022/05/13 06:53:10;;;;;;;0.10;0.10;;;17.50;96.00;;;;;;5010629;28;20639;-69
2022/05/13 06:55:36;;;;;;;0.10;0.10;;;17.50;96.00;;;;;;5009798;28;20044;-69
2022/05/13 06:58:02;;;;;;;0.45;0.45;;;17.60;96.00;;;;;;5009595;28;20437;-69
2022/05/13 07:00:28;;;;;;;0.40;0.30;;;17.70;96.20;;;;;;5010507;28;20037;-69
2022/05/13 07:02:54;;;;;;;0.00;0.00;;;17.80;96.20;;;;;;5009263;28;20022;-69
2022/05/13 07:05:21;;;;;;;0.00;0.00;;;17.90;95.80;;;;;;5009674;28;20126;-68
2022/05/13 07:07:47;;;;;;;0.10;0.10;;;17.90;96.00;;;;;;5009732;28;20046;-68
2022/05/13 07:10:13;;;;;;;0.00;0.00;;;18.00;95.70;;;;;;4992541;28;20026;-68
2022/05/13 07:12:40;;;;;;;0.00;0.00;;;18.00;95.50;;;;;;5009235;28;20080;-68
2022/05/13 07:15:11;;;;;;;0.00;0.00;;;18.10;95.50;;;;;;4997079;28;20577;-68
2022/05/13 07:17:38;;;;;;;2.70;0.60;;;18.20;95.70;;;;;;4991167;28;20042;-68
2022/05/13 07:20:06;;;;;;;0.10;0.10;;;18.10;95.60;;;;;;4990343;28;20473;-68
2022/05/13 07:22:32;;;;;;;0.43;0.32;;;18.10;95.90;;;;;;4990178;28;20106;-68
2022/05/13 07:24:58;;;;;;;0.00;0.00;;;18.10;95.70;;;;;;4990672;28;20401;-68
2022/05/13 07:27:24;;;;;;;0.00;0.00;;;18.00;96.10;;;;;;4991414;28;20109;-67
2022/05/13 07:29:50;;;;;;;0.10;0.10;;;18.00;95.80;;;;;;4989320;28;20192;-67
2022/05/13 07:32:15;;;;;;;0.00;0.00;;;18.10;96.00;;;;;;4990640;28;20151;-68
2022/05/13 07:34:41;;;;;;;0.00;0.00;;;18.10;96.00;;;;;;4989399;28;20097;-67
2022/05/13 07:37:07;;;;;;;0.20;0.10;;;18.20;96.30;;;;;;4990518;28;20038;-67
2022/05/13 07:42:17;;;;;;;0.00;0.00;;;18.30;95.30;;;;;;5002534;28;20037;-68
2022/05/13 07:44:42;;;;;;;0.05;0.05;;;18.30;95.50;;;;;;5009244;28;20034;-67
2022/05/13 07:47:10;;;;;;;0.08;0.08;;;18.30;95.40;;;;;;5010301;28;20033;-67
2022/05/13 07:49:39;;;;;;;0.00;0.00;;;18.20;95.80;;;;;;5008908;28;20058;-70
2022/05/13 07:52:06;;;;;;;0.00;0.00;;;18.20;95.20;;;;;;5009333;28;20079;-72
2022/05/13 07:54:32;;;;;;;0.00;0.00;;;18.20;95.10;;;;;;5009346;28;20026;-81
2022/05/13 07:56:58;;;;;;;0.00;0.00;;;18.40;94.80;;;;;;5008520;28;20478;-76
2022/05/13 07:59:23;;;;;;;0.45;0.35;;;18.40;95.20;;;;;;5009453;28;20066;-71
2022/05/13 08:01:49;;;;;;;0.00;0.00;;;18.80;95.00;;;;;;5009283;28;20033;-74
2022/05/13 08:04:15;;;;;;;0.00;0.00;;;19.10;93.70;;;;;;5010116;28;20033;-75
2022/05/13 08:06:42;;;;;;;0.00;0.00;;;19.60;92.90;;;;;;5009730;28;20030;-75
2022/05/13 08:09:08;;;;;;;0.25;0.25;;;20.00;92.20;;;;;;5009970;28;20037;-72
2022/05/13 08:11:34;;;;;;;0.10;0.10;;;20.10;92.10;;;;;;5010017;28;20040;-77
2022/05/13 08:14:01;;;;;;;1.08;0.98;;;20.20;91.20;;;;;;5006162;28;20034;-72
2022/05/13 08:16:29;;;;;;;0.22;0.13;;;20.30;91.00;;;;;;4990465;28;20026;-71
2022/05/13 08:19:02;;;;;;;0.00;0.00;;;20.40;90.70;;;;;;4989962;28;20034;-74
2022/05/13 08:21:28;;;;;;;0.47;0.47;;;20.30;90.70;;;;;;4988855;28;20034;-73
2022/05/13 08:23:54;;;;;;;0.00;0.00;;;20.20;90.60;;;;;;4989404;28;20022;-71
2022/05/13 08:26:19;;;;;;;0.00;0.00;;;19.60;91.20;;;;;;4992726;28;20053;-72
2022/05/13 08:28:49;;;;;;;3.20;0.52;;;19.50;91.20;;;;;;4992170;28;20486;-73
2022/05/13 08:31:17;;;;;;;0.45;0.45;;;19.50;91.30;;;;;;4976537;28;20041;-72
2022/05/13 08:33:43;;;;;;;0.45;0.45;;;19.10;90.50;;;;;;4993995;28;20030;-71
2022/05/13 08:36:09;;;;;;;0.00;0.00;;;18.70;91.40;;;;;;4993925;28;20371;-66
2022/05/13 08:38:40;;;;;;;0.00;0.00;;;18.70;91.90;;;;;;4990594;28;20041;-67
2022/05/13 08:41:09;;;;;;;0.00;0.00;;;18.50;91.50;;;;;;4990781;28;20037;-66
2022/05/13 08:43:58;;;;;;;0.17;0.15;;;18.70;92.10;;;;;;4992734;28;20050;-66
2022/05/13 08:46:45;;;;;;;0.28;0.28;;;19.00;91.70;;;;;;4993163;28;20522;-66
2022/05/13 08:49:35;;;;;;;0.28;0.28;;;19.20;91.40;;;;;;4992798;28;20338;-66
2022/05/13 08:55:10;;;;;;;0.10;0.10;;;19.20;91.30;;;;;;4993264;28;20044;-66
2022/05/13 08:57:42;;;;;;;0.00;0.00;;;19.30;91.50;;;;;;4990625;28;20398;-66
2022/05/13 09:00:16;;;;;;;0.00;0.00;;;19.20;90.70;;;;;;4984183;28;20031;-66
2022/05/13 09:02:52;;;;;;;0.20;0.20;;;19.20;91.20;;;;;;4991954;28;20031;-66
2022/05/13 09:05:43;;;;;;;0.93;0.85;;;19.30;91.00;;;;;;4992081;28;20022;-66
2022/05/13 09:08:09;;;;;;;0.47;0.47;;;19.40;91.10;;;;;;4991940;28;20026;-66
2022/05/13 09:11:13;;;;;;;3.75;0.90;;;19.40;90.20;;;;;;4991237;28;20034;-66
2022/05/13 09:13:51;;;;;;;1.17;0.68;;;19.20;90.40;;;;;;4991762;28;20019;-66
2022/05/13 09:16:42;;;;;;;0.03;0.03;;;19.10;90.30;;;;;;4973566;28;20035;-66
2022/05/13 09:19:33;;;;;;;9.80;2.50;;;19.10;90.70;;;;;;4972997;28;20039;-66
2022/05/13 09:22:01;;;;;;;0.70;0.65;;;19.30;90.20;;;;;;4972122;28;20039;-66
2022/05/13 09:24:27;;;;;;;0.00;0.00;;;19.50;90.20;;;;;;4971653;28;20043;-66
2022/05/13 09:26:53;;;;;;;0.10;0.10;;;19.60;90.30;;;;;;4973371;28;20476;-66
2022/05/13 09:29:19;;;;;;;0.13;0.13;;;19.80;90.00;;;;;;4972571;28;20031;-66
2022/05/13 09:32:07;;;;;;;0.45;0.43;;;19.70;90.10;;;;;;4973037;28;20126;-67
2022/05/13 09:35:00;;;;;;;0.00;0.00;;;19.80;90.40;;;;;;4971905;28;20391;-67
2022/05/13 09:37:34;;;;;;;0.00;0.00;;;20.10;88.20;;;;;;4971898;28;20487;-66
2022/05/13 09:40:18;;;;;;;0.00;0.00;;;20.40;88.30;;;;;;4971637;28;20041;-67
2022/05/13 09:42:50;;;;;;;0.00;0.00;;;20.30;88.40;;;;;;5004218;28;20038;-69
2022/05/13 09:45:28;;;;;;;4.68;1.73;;;20.30;87.60;;;;;;5011827;28;20498;-66
2022/05/13 09:48:06;;;;;;;0.10;0.10;;;20.40;87.90;;;;;;5010876;28;20030;-66
2022/05/13 09:51:18;;;;;;;0.00;0.00;;;20.50;87.70;;;;;;5011552;28;20044;-67
2022/05/13 09:53:58;;;;;;;2.05;0.43;;;20.50;86.40;;;;;;4991930;28;20041;-68
2022/05/13 09:56:33;;;;;;;8.82;1.15;;;20.70;87.30;;;;;;4991320;28;20026;-68
2022/05/13 09:59:07;;;;;;;0.00;0.00;;;20.80;84.50;;;;;;4975378;28;20030;-69
2022/05/13 10:01:33;;;;;;;0.03;0.00;;;20.60;83.10;;;;;;4991774;28;20083;-67
2022/05/13 10:04:10;;;;;;;0.13;0.13;;;20.70;83.30;;;;;;4991661;28;20371;-67
2022/05/13 10:06:38;;;;;;;0.10;0.05;;;20.60;82.60;;;;;;4992339;28;20038;-71
2022/05/13 10:15:58;;;;;;;0.10;0.10;;;20.80;83.90;;;;;;4997061;28;20042;-69
2022/05/13 10:18:31;;;;;;;0.00;0.00;;;20.80;80.90;;;;;;4982384;28;20046;-66
2022/05/13 10:21:24;;;;;;;0.03;0.03;;;21.00;79.00;;;;;;4991122;28;20432;-69
2022/05/13 10:23:57;;;;;;;0.20;0.20;;;21.30;79.10;;;;;;4991386;28;20029;-67
2022/05/13 10:26:35;;;;;;;0.73;0.65;;;21.40;78.70;;;;;;4990606;28;20106;-71
2022/05/13 10:29:15;;;;;;;0.00;0.00;;;21.40;78.60;;;;;;4989598;28;20096;-72
2022/05/13 10:31:45;;;;;;;0.00;0.00;;;21.40;78.90;;;;;;4990211;28;20077;-69
2022/05/13 10:34:37;;;;;;;0.65;0.47;;;21.30;78.50;;;;;;4990220;28;20399;-68
2022/05/13 10:37:44;;;;;;;1.73;0.52;;;21.30;77.10;;;;;;4989467;28;20034;-69
2022/05/13 10:40:18;;;;;;;0.20;0.20;;;21.30;77.60;;;;;;4989729;28;20153;-69
2022/05/13 10:43:00;;;;;;;0.00;0.00;;;21.30;78.40;;;;;;4992298;28;20065;-68
2022/05/13 10:45:27;;;;;;;1.85;0.98;;;21.50;77.80;;;;;;4990442;28;20034;-68
2022/05/13 10:48:24;;;;;;;0.00;0.00;;;21.30;77.70;;;;;;4989447;28;20073;-68
2022/05/13 10:51:30;;;;;;;0.20;0.20;;;21.30;78.00;;;;;;4990890;28;20057;-68
2022/05/13 10:54:13;;;;;;;0.20;0.20;;;21.60;77.50;;;;;;4970662;28;20046;-67
2022/05/13 10:57:09;;;;;;;0.00;0.00;;;21.90;77.60;;;;;;4971787;28;20502;-65
2022/05/13 11:00:00;;;;;;;0.00;0.00;;;21.90;77.30;;;;;;4970240;28;20031;-67
2022/05/13 11:03:14;;;;;;;0.00;0.00;;;22.20;75.70;;;;;;4971148;28;20553;-67
2022/05/13 11:06:04;;;;;;;0.10;0.10;;;22.40;75.50;;;;;;4962876;28;20042;-67
2022/05/13 11:08:50;;;;;;;0.10;0.05;;;22.30;76.20;;;;;;4969772;28;20034;-67
2022/05/13 11:11:41;;;;;;;0.00;0.00;;;22.60;73.80;;;;;;4979244;28;20037;-67
2022/05/13 11:14:23;;;;;;;0.10;0.08;;;22.50;74.00;;;;;;5005530;28;20109;-67
2022/05/13 11:17:37;;;;;;;0.00;0.00;;;22.50;74.20;;;;;;4989416;28;20038;-66
2022/05/13 11:20:27;;;;;;;0.00;0.00;;;22.80;74.10;;;;;;4989248;28;20132;-67
2022/05/13 11:23:10;;;;;;;0.00;0.00;;;22.50;73.60;;;;;;4989921;28;20177;-68
2022/05/13 11:26:10;;;;;;;3.42;0.47;;;22.40;74.60;;;;;;4989031;28;20034;-67
2022/05/13 11:28:53;;;;;;;0.00;0.00;;;22.30;72.00;;;;;;4989550;28;20026;-67
2022/05/13 11:32:04;;;;;;;0.10;0.08;;;22.40;73.00;;;;;;4990247;28;20462;-67
2022/05/13 11:35:07;;;;;;;0.13;0.13;;;22.70;73.70;;;;;;4990201;28;20069;-68
2022/05/13 11:37:40;;;;;;;0.00;0.00;;;23.00;69.80;;;;;;4985462;28;20575;-69
2022/05/13 11:40:43;;;;;;;0.00;0.00;;;22.80;69.60;;;;;;4985300;28;20046;-68
2022/05/13 11:43:39;;;;;;;0.00;0.00;;;22.70;69.50;;;;;;4993096;28;20386;-68
2022/05/13 11:46:37;;;;;;;0.00;0.00;;;22.50;68.20;;;;;;4990187;28;20391;-69
2022/05/13 11:49:29;;;;;;;0.85;0.82;;;22.50;69.70;;;;;;4970832;28;20035;-68
2022/05/13 11:52:03;;;;;;;0.75;0.35;;;22.90;68.30;;;;;;4975664;28;20037;-60
2022/05/13 11:54:30;;;;;;;0.52;0.52;;;22.80;68.10;;;;;;4989843;28;20022;-61
2022/05/13 11:57:23;;;;;;;17.45;0.45;;;22.80;68.40;;;;;;4990298;28;20068;-60
2022/05/13 12:00:09;;;;;;;0.08;0.08;;;23.10;68.50;;;;;;4970780;28;20031;-61
2022/05/13 12:03:01;;;;;;;0.00;0.00;;;23.40;68.60;;;;;;4974333;28;20431;-61
2022/05/13 12:05:31;;;;;;;0.00;0.00;;;23.50;66.50;;;;;;4973838;28;20038;-60
2022/05/13 12:08:48;;;;;;;0.00;0.00;;;23.80;67.50;;;;;;4958011;28;20023;-62
2022/05/13 12:11:56;;;;;;;0.00;0.00;;;23.50;66.50;;;;;;4980395;28;20038;-62
2022/05/13 12:14:42;;;;;;;1.65;0.43;;;23.70;66.00;;;;;;4994114;28;20117;-60
2022/05/13 12:17:36;;;;;;;0.00;0.00;;;24.30;65.20;;;;;;4993382;28;20030;-60
2022/05/13 12:20:36;;;;;;;0.22;0.20;;;24.50;65.80;;;;;;4993444;28;20121;-61
2022/05/13 12:23:30;;;;;;;0.00;0.00;;;24.20;64.60;;;;;;4974426;28;20093;-61
2022/05/13 12:26:02;;;;;;;10.32;1.35;;;24.80;63.80;;;;;;4974502;28;20030;-61
2022/05/13 12:28:55;;;;;;;0.05;0.00;;;24.30;62.30;;;;;;4997407;28;20030;-62
2022/05/13 12:31:54;;;;;;;0.52;0.35;;;24.30;63.80;;;;;;4993261;28;20042;-61
2022/05/13 12:37:47;;;;;;;3.92;1.67;;;24.50;61.80;;;;;;4993856;28;20033;-62
2022/05/13 12:40:22;;;;;;;0.00;0.00;;;24.20;62.00;;;;;;4992905;28;20038;-62
2022/05/13 12:42:49;;;;;;;55.35;1.20;;;24.20;62.00;;;;;;5009772;28;20521;-61
2022/05/13 12:45:18;;;;;;;0.00;0.00;;;23.90;62.20;;;;;;5000054;28;20752;-61
2022/05/13 12:48:17;;;;;;;0.20;0.20;;;23.70;62.70;;;;;;4993175;28;20046;-61
2022/05/13 12:50:50;;;;;;;0.10;0.10;;;24.00;62.80;;;;;;4992539;28;20056;-61
2022/05/13 12:53:28;;;;;;;0.10;0.10;;;24.10;62.90;;;;;;4993571;28;20042;-61
2022/05/13 12:56:00;;;;;;;0.00;0.00;;;24.40;62.50;;;;;;4993418;28;20030;-61
2022/05/13 12:58:29;;;;;;;0.00;0.00;;;24.70;61.50;;;;;;4991902;28;20037;-61
2022/05/13 13:01:00;;;;;;;0.00;0.00;;;24.20;60.20;;;;;;4993144;28;20027;-62
2022/05/13 13:03:26;;;;;;;0.00;0.00;;;24.70;60.90;;;;;;4975279;28;20490;-61
2022/05/13 13:06:06;;;;;;;0.00;0.00;;;24.90;59.60;;;;;;4994797;28;20117;-61
2022/05/13 13:08:36;;;;;;;0.00;0.00;;;24.60;60.80;;;;;;5010410;28;20034;-61
2022/05/13 13:11:23;;;;;;;0.00;0.00;;;25.00;60.90;;;;;;5012023;28;20474;-61
2022/05/13 13:14:18;;;;;;;0.20;0.20;;;24.60;60.00;;;;;;5009971;28;20045;-61
2022/05/13 13:16:55;;;;;;;0.15;0.15;;;24.60;59.40;;;;;;4993186;28;20035;-62
2022/05/13 13:19:25;;;;;;;0.45;0.45;;;24.90;60.00;;;;;;4991156;28;20049;-61
2022/05/13 13:21:56;;;;;;;0.00;0.00;;;25.00;57.50;;;;;;4992889;28;20034;-61
2022/05/13 13:24:35;;;;;;;0.00;0.00;;;25.10;59.30;;;;;;4991928;28;20035;-61
2022/05/13 13:27:01;;;;;;;0.00;0.00;;;25.30;58.40;;;;;;4991701;28;20112;-61
2022/05/13 13:29:37;;;;;;;0.65;0.45;;;25.20;58.80;;;;;;4991432;28;20042;-61
2022/05/13 13:32:07;;;;;;;0.08;0.08;;;25.60;58.70;;;;;;4992818;28;20035;-61
2022/05/13 13:34:59;;;;;;;0.55;0.10;;;26.10;57.60;;;;;;4991092;28;20113;-61
2022/05/13 13:37:34;;;;;;;0.00;0.00;;;26.70;56.40;;;;;;4992586;28;20034;-61
2022/05/13 13:40:19;;;;;;;7.13;0.47;;;26.90;56.30;;;;;;4992308;28;20112;-61
2022/05/13 13:42:45;;;;;;;0.00;0.00;;;27.40;56.20;;;;;;5007849;28;20060;-61
2022/05/13 13:45:21;;;;;;;1.38;0.90;;;26.70;53.30;;;;;;5011182;28;20034;-61
2022/05/13 13:47:53;;;;;;;0.00;0.00;;;25.70;53.80;;;;;;5012065;28;20116;-61
2022/05/13 13:50:30;;;;;;;0.00;0.00;;;26.10;54.10;;;;;;5010669;28;20457;-61
2022/05/13 13:52:57;;;;;;;0.10;0.10;;;26.60;55.60;;;;;;5010635;28;20045;-61
2022/05/13 13:55:24;;;;;;;0.00;0.00;;;27.10;54.60;;;;;;5009725;28;20037;-61